Time;durP1;ratioP1;P1;durP2;ratioP2;P2;SDS_P1;SDS_P2;PMS_P1;PMS_P2;Temp;Humidity;BMP_temperature;BMP_pressure;BME280_temperature;BME280_humidity;BME280_pressure;Samples;Min_cycle;Max_cycle;Signal;HPM_P1;HPM_P2
2023/05/01 00:01:37;;;;;;;4.60;4.20;;;;;;;;;;5047354;28;20201;-77
2023/05/01 00:04:02;;;;;;;4.43;4.03;;;;;;;;;;5047158;28;20192;-77
2023/05/01 00:06:27;;;;;;;4.23;3.83;;;;;;;;;;5050607;28;20188;-78
2023/05/01 00:08:52;;;;;;;4.27;3.97;;;;;;;;;;5051788;28;20195;-77
2023/05/01 00:11:18;;;;;;;4.47;4.17;;;;;;;;;;5045917;28;20243;-77
2023/05/01 00:13:43;;;;;;;4.10;3.70;;;;;;;;;;5049028;28;20179;-77
2023/05/01 00:16:10;;;;;;;4.03;3.73;;;;;;;;;;5047018;28;20219;-77
2023/05/01 00:18:35;;;;;;;5.83;4.63;;;;;;;;;;5047667;28;20173;-77
2023/05/01 00:21:01;;;;;;;4.07;3.77;;;;;;;;;;5041295;28;20173;-78
2023/05/01 00:23:27;;;;;;;4.63;3.83;;;;;;;;;;5047900;28;20176;-78
2023/05/01 00:25:52;;;;;;;4.70;4.23;;;;;;;;;;5043424;28;20171;-77
2023/05/01 00:28:17;;;;;;;5.00;4.17;;;;;;;;;;5046810;28;20223;-77
2023/05/01 00:30:44;;;;;;;3.80;3.50;;;;;;;;;;5048816;28;20176;-77
2023/05/01 00:33:09;;;;;;;4.47;4.07;;;;;;;;;;5048710;28;20184;-78
2023/05/01 00:35:34;;;;;;;4.70;4.20;;;;;;;;;;5048972;28;20187;-77
2023/05/01 00:38:00;;;;;;;4.57;4.17;;;;;;;;;;5047816;28;20193;-77
2023/05/01 00:40:25;;;;;;;5.60;5.10;;;;;;;;;;5044809;28;20179;-77
2023/05/01 00:42:50;;;;;;;4.73;4.33;;;;;;;;;;5046630;28;20181;-77
2023/05/01 00:45:16;;;;;;;4.30;3.90;;;;;;;;;;5045178;28;20179;-77
2023/05/01 00:47:41;;;;;;;4.23;3.93;;;;;;;;;;5051740;28;20178;-77
2023/05/01 00:50:06;;;;;;;4.67;4.27;;;;;;;;;;5046117;28;20197;-77
2023/05/01 00:52:32;;;;;;;6.00;5.07;;;;;;;;;;5061737;28;20198;-77
2023/05/01 00:54:57;;;;;;;4.80;4.27;;;;;;;;;;5045625;28;20182;-77
2023/05/01 00:57:22;;;;;;;4.63;4.23;;;;;;;;;;5048101;28;20179;-77
2023/05/01 00:59:48;;;;;;;3.83;3.53;;;;;;;;;;5047714;28;20178;-77
2023/05/01 01:02:14;;;;;;;4.43;4.03;;;;;;;;;;5044584;28;20214;-77
2023/05/01 01:04:43;;;;;;;4.70;4.30;;;;;;;;;;5045039;28;20261;-77
2023/05/01 01:07:20;;;;;;;5.33;4.80;;;;;;;;;;5044491;28;20179;-77
2023/05/01 01:09:49;;;;;;;4.57;4.17;;;;;;;;;;5048615;28;20182;-77
2023/05/01 01:12:30;;;;;;;4.57;4.17;;;;;;;;;;5046650;28;20209;-77
2023/05/01 01:15:04;;;;;;;4.43;4.03;;;;;;;;;;5029047;28;20183;-78
2023/05/01 01:17:37;;;;;;;5.67;4.93;;;;;;;;;;5043469;28;20221;-78
2023/05/01 01:20:22;;;;;;;6.07;4.53;;;;;;;;;;5042014;28;20175;-78
2023/05/01 01:22:56;;;;;;;4.93;4.37;;;;;;;;;;5046863;28;20280;-77
2023/05/01 01:25:39;;;;;;;4.83;4.40;;;;;;;;;;5046882;28;20245;-78
2023/05/01 01:28:24;;;;;;;5.07;4.57;;;;;;;;;;5059203;28;20275;-77
2023/05/01 01:31:08;;;;;;;5.17;4.77;;;;;;;;;;5038700;28;20182;-77
2023/05/01 01:33:57;;;;;;;5.07;4.63;;;;;;;;;;5046526;28;20281;-77
2023/05/01 01:36:28;;;;;;;4.93;4.50;;;;;;;;;;5010437;28;20186;-77
2023/05/01 01:39:06;;;;;;;4.93;4.53;;;;;;;;;;5065333;28;20179;-77
2023/05/01 01:41:32;;;;;;;4.60;4.20;;;;;;;;;;5048409;28;20171;-77
2023/05/01 01:44:01;;;;;;;5.40;4.33;;;;;;;;;;5048548;28;20186;-77
2023/05/01 01:46:27;;;;;;;5.17;4.40;;;;;;;;;;5036989;28;20171;-77
2023/05/01 01:48:54;;;;;;;4.70;4.30;;;;;;;;;;5048452;28;20181;-77
2023/05/01 01:51:21;;;;;;;4.43;4.03;;;;;;;;;;5046639;28;20275;-77
2023/05/01 01:53:49;;;;;;;5.67;4.53;;;;;;;;;;5046657;28;20188;-78
2023/05/01 01:56:16;;;;;;;5.33;4.93;;;;;;;;;;5042132;28;20186;-77
2023/05/01 01:58:42;;;;;;;5.23;4.47;;;;;;;;;;5044934;28;20179;-78
2023/05/01 02:01:08;;;;;;;5.37;4.40;;;;;;;;;;5044420;28;20178;-78
2023/05/01 02:03:34;;;;;;;6.27;4.97;;;;;;;;;;5046136;28;20202;-78
2023/05/01 02:06:00;;;;;;;7.17;4.13;;;;;;;;;;5044733;28;20179;-77
2023/05/01 02:08:27;;;;;;;4.83;4.43;;;;;;;;;;5041600;28;20190;-77
2023/05/01 02:10:58;;;;;;;4.63;4.20;;;;;;;;;;5047216;28;20185;-77
2023/05/01 02:13:24;;;;;;;4.93;4.43;;;;;;;;;;5047925;28;20231;-77
2023/05/01 02:15:50;;;;;;;4.63;4.20;;;;;;;;;;5045448;28;20171;-78
2023/05/01 02:18:16;;;;;;;7.67;4.57;;;;;;;;;;5043477;28;20185;-77
2023/05/01 02:20:42;;;;;;;5.33;4.67;;;;;;;;;;5046491;28;20171;-78
2023/05/01 02:23:08;;;;;;;5.33;4.83;;;;;;;;;;5041474;28;20183;-77
2023/05/01 02:25:35;;;;;;;4.70;4.30;;;;;;;;;;5046529;28;20236;-77
2023/05/01 02:28:05;;;;;;;5.70;4.63;;;;;;;;;;5046837;28;20249;-77
2023/05/01 02:30:31;;;;;;;5.37;4.87;;;;;;;;;;5046412;28;20180;-78
2023/05/01 02:32:56;;;;;;;6.37;5.00;;;;;;;;;;5042556;28;20201;-77
2023/05/01 02:35:22;;;;;;;4.40;4.10;;;;;;;;;;5045047;28;20183;-77
2023/05/01 02:37:47;;;;;;;7.80;4.77;;;;;;;;;;5045336;28;20235;-77
2023/05/01 02:40:15;;;;;;;5.97;5.10;;;;;;;;;;5047907;28;20182;-77
2023/05/01 02:42:44;;;;;;;4.97;4.57;;;;;;;;;;5042457;28;20236;-77
2023/05/01 02:45:16;;;;;;;4.90;4.50;;;;;;;;;;5057251;28;20175;-77
2023/05/01 02:47:42;;;;;;;5.03;4.63;;;;;;;;;;5044424;28;20175;-77
2023/05/01 02:50:08;;;;;;;5.17;4.73;;;;;;;;;;5049008;28;20258;-77
2023/05/01 02:52:35;;;;;;;4.33;3.93;;;;;;;;;;5037649;28;20680;-77
2023/05/01 02:55:02;;;;;;;5.60;5.10;;;;;;;;;;5057613;28;20240;-77
2023/05/01 02:57:27;;;;;;;5.50;4.93;;;;;;;;;;5039671;28;20200;-78
2023/05/01 02:59:52;;;;;;;5.50;5.00;;;;;;;;;;5040840;28;20198;-77
2023/05/01 03:02:18;;;;;;;4.93;4.30;;;;;;;;;;5045328;28;20201;-78
2023/05/01 03:04:43;;;;;;;5.47;4.97;;;;;;;;;;5046370;28;20237;-77
2023/05/01 03:07:08;;;;;;;4.97;4.57;;;;;;;;;;5050744;28;20224;-78
2023/05/01 03:09:33;;;;;;;5.53;4.77;;;;;;;;;;5047882;28;20210;-77
2023/05/01 03:11:59;;;;;;;5.53;5.03;;;;;;;;;;5044232;28;20259;-77
2023/05/01 03:14:27;;;;;;;5.50;5.00;;;;;;;;;;5046224;28;20210;-78
2023/05/01 03:16:52;;;;;;;5.23;4.73;;;;;;;;;;5048001;28;20179;-77
2023/05/01 03:19:17;;;;;;;5.00;4.50;;;;;;;;;;5049659;28;20182;-77
2023/05/01 03:21:43;;;;;;;4.53;4.10;;;;;;;;;;5048210;28;20170;-77
2023/05/01 03:24:09;;;;;;;4.77;4.33;;;;;;;;;;5049796;28;20189;-77
2023/05/01 03:26:34;;;;;;;5.07;4.57;;;;;;;;;;5049996;28;20182;-78
2023/05/01 03:28:59;;;;;;;5.47;5.00;;;;;;;;;;5045461;28;20309;-77
2023/05/01 03:31:24;;;;;;;6.87;4.73;;;;;;;;;;5053780;28;20236;-77
2023/05/01 03:33:50;;;;;;;5.53;4.93;;;;;;;;;;5043720;28;20179;-77
2023/05/01 03:36:15;;;;;;;7.33;4.97;;;;;;;;;;5049582;28;20179;-78
2023/05/01 03:38:41;;;;;;;6.43;5.33;;;;;;;;;;5051935;28;20198;-77
2023/05/01 03:41:06;;;;;;;5.73;4.80;;;;;;;;;;5050188;28;20221;-78
2023/05/01 03:43:31;;;;;;;5.90;5.03;;;;;;;;;;5042484;28;20220;-77
2023/05/01 03:45:57;;;;;;;5.27;4.63;;;;;;;;;;5043515;28;20232;-78
2023/05/01 03:48:23;;;;;;;5.40;4.90;;;;;;;;;;5048776;28;20175;-78
2023/05/01 03:50:49;;;;;;;5.30;4.80;;;;;;;;;;5049558;28;20182;-77
2023/05/01 03:53:15;;;;;;;5.03;4.37;;;;;;;;;;5047730;28;20210;-77
2023/05/01 03:55:40;;;;;;;5.97;4.87;;;;;;;;;;5056966;28;20261;-78
2023/05/01 03:58:06;;;;;;;5.73;5.23;;;;;;;;;;5049054;28;20266;-78
2023/05/01 04:00:31;;;;;;;5.67;5.10;;;;;;;;;;5045308;28;20182;-77
2023/05/01 04:02:57;;;;;;;5.33;4.50;;;;;;;;;;5043982;28;20271;-77
2023/05/01 04:05:22;;;;;;;5.33;4.83;;;;;;;;;;5051565;28;20217;-78
2023/05/01 04:07:47;;;;;;;5.67;5.07;;;;;;;;;;5046612;28;20179;-77
2023/05/01 04:10:12;;;;;;;5.23;4.80;;;;;;;;;;5052969;28;20188;-78
2023/05/01 04:12:37;;;;;;;5.37;4.87;;;;;;;;;;5038975;28;20198;-77
2023/05/01 04:15:03;;;;;;;5.30;4.80;;;;;;;;;;5062951;28;20175;-77
2023/05/01 04:17:28;;;;;;;6.23;4.77;;;;;;;;;;5047544;28;20181;-77
2023/05/01 04:19:54;;;;;;;5.77;4.57;;;;;;;;;;5044831;28;20303;-77
2023/05/01 04:22:20;;;;;;;5.07;4.67;;;;;;;;;;5047691;28;20172;-77
2023/05/01 04:24:45;;;;;;;4.93;4.53;;;;;;;;;;5047031;28;20183;-77
2023/05/01 04:27:10;;;;;;;8.63;5.13;;;;;;;;;;5047284;28;20192;-77
2023/05/01 04:29:36;;;;;;;5.20;4.70;;;;;;;;;;5046565;28;20227;-78
2023/05/01 04:32:01;;;;;;;5.27;4.80;;;;;;;;;;5049853;28;20205;-77
2023/05/01 04:34:28;;;;;;;5.00;4.50;;;;;;;;;;5048694;28;20178;-77
2023/05/01 04:36:53;;;;;;;6.73;5.20;;;;;;;;;;5047633;28;20236;-77
2023/05/01 04:39:18;;;;;;;4.87;4.47;;;;;;;;;;5044279;28;20183;-78
2023/05/01 04:41:44;;;;;;;4.83;4.40;;;;;;;;;;5037177;28;20186;-77
2023/05/01 04:44:09;;;;;;;5.80;5.07;;;;;;;;;;5048774;28;20185;-78
2023/05/01 04:46:34;;;;;;;5.00;4.37;;;;;;;;;;5045357;28;20216;-78
2023/05/01 04:48:59;;;;;;;5.13;4.57;;;;;;;;;;5045187;28;20214;-78
2023/05/01 04:51:25;;;;;;;5.80;5.20;;;;;;;;;;5048683;28;20214;-78
2023/05/01 04:53:50;;;;;;;6.53;5.20;;;;;;;;;;5052917;28;20257;-78
2023/05/01 04:56:15;;;;;;;6.40;5.00;;;;;;;;;;5048877;28;20177;-77
2023/05/01 04:58:41;;;;;;;5.30;4.80;;;;;;;;;;5045028;28;20186;-77
2023/05/01 05:01:06;;;;;;;6.53;5.20;;;;;;;;;;5040297;28;20195;-78
2023/05/01 05:03:31;;;;;;;7.03;5.30;;;;;;;;;;5043764;28;20190;-78
2023/05/01 05:05:56;;;;;;;5.27;4.80;;;;;;;;;;5047494;28;20205;-76
2023/05/01 05:08:21;;;;;;;5.80;5.23;;;;;;;;;;5047909;28;20180;-75
2023/05/01 05:10:47;;;;;;;6.23;4.70;;;;;;;;;;5047126;28;20182;-75
2023/05/01 05:13:12;;;;;;;5.87;4.93;;;;;;;;;;5040246;28;20206;-75
2023/05/01 05:15:37;;;;;;;5.17;4.57;;;;;;;;;;5041058;28;20186;-76
2023/05/01 05:18:03;;;;;;;5.87;4.70;;;;;;;;;;5044780;28;20178;-75
2023/05/01 05:20:28;;;;;;;5.17;4.70;;;;;;;;;;5041593;28;20313;-76
2023/05/01 05:22:53;;;;;;;5.10;4.60;;;;;;;;;;5037893;28;20237;-75
2023/05/01 05:25:18;;;;;;;16.43;9.90;;;;;;;;;;5040930;28;20189;-76
2023/05/01 05:27:44;;;;;;;5.20;4.80;;;;;;;;;;5032567;28;20170;-76
2023/05/01 05:30:09;;;;;;;8.80;7.10;;;;;;;;;;5054997;28;20191;-75
2023/05/01 05:32:34;;;;;;;6.50;5.90;;;;;;;;;;5039782;28;20221;-76
2023/05/01 05:34:59;;;;;;;5.60;4.97;;;;;;;;;;5054129;28;20189;-76
2023/05/01 05:37:25;;;;;;;5.77;5.27;;;;;;;;;;5042094;28;20265;-76
2023/05/01 05:39:50;;;;;;;6.40;5.80;;;;;;;;;;5043334;28;20187;-76
2023/05/01 05:42:16;;;;;;;5.80;5.30;;;;;;;;;;5040209;28;20278;-76
2023/05/01 05:44:41;;;;;;;10.33;7.50;;;;;;;;;;5043112;28;20182;-76
2023/05/01 05:47:06;;;;;;;6.33;5.70;;;;;;;;;;5037187;28;20190;-76
2023/05/01 05:49:31;;;;;;;5.87;5.37;;;;;;;;;;5032467;28;20196;-75
2023/05/01 05:51:57;;;;;;;6.07;5.47;;;;;;;;;;5040267;28;20199;-76
2023/05/01 05:54:22;;;;;;;10.17;5.90;;;;;;;;;;5044085;28;20196;-76
2023/05/01 05:56:47;;;;;;;6.10;5.60;;;;;;;;;;5039258;28;20181;-76
2023/05/01 05:59:12;;;;;;;5.93;5.33;;;;;;;;;;5035541;28;20170;-76
2023/05/01 06:01:39;;;;;;;7.10;5.63;;;;;;;;;;5030610;28;20197;-76
2023/05/01 06:04:04;;;;;;;6.60;6.00;;;;;;;;;;5039508;28;20179;-76
2023/05/01 06:06:30;;;;;;;6.83;6.13;;;;;;;;;;5038284;28;20284;-76
2023/05/01 06:08:55;;;;;;;6.77;6.03;;;;;;;;;;5042764;28;20183;-76
2023/05/01 06:11:21;;;;;;;6.30;5.40;;;;;;;;;;5034292;28;20289;-75
2023/05/01 06:13:46;;;;;;;6.77;6.17;;;;;;;;;;5035685;28;20180;-75
2023/05/01 06:16:11;;;;;;;7.43;5.90;;;;;;;;;;5035978;28;20196;-75
2023/05/01 06:18:36;;;;;;;7.10;6.40;;;;;;;;;;5034325;28;20196;-76
2023/05/01 06:21:02;;;;;;;6.70;6.13;;;;;;;;;;5051065;28;20185;-75
2023/05/01 06:23:27;;;;;;;7.50;6.53;;;;;;;;;;5035042;28;20220;-76
2023/05/01 06:25:52;;;;;;;7.07;6.43;;;;;;;;;;5037370;28;20174;-76
2023/05/01 06:28:18;;;;;;;7.13;6.37;;;;;;;;;;5034684;28;20224;-76
2023/05/01 06:30:43;;;;;;;6.63;5.73;;;;;;;;;;5035103;28;20211;-76
2023/05/01 06:33:09;;;;;;;6.13;5.63;;;;;;;;;;5043150;28;20214;-75
2023/05/01 06:35:34;;;;;;;6.87;6.07;;;;;;;;;;5042661;28;20177;-75
2023/05/01 06:38:02;;;;;;;7.73;6.53;;;;;;;;;;5046546;28;20185;-75
2023/05/01 06:40:28;;;;;;;6.90;6.30;;;;;;;;;;5058919;28;20173;-76
2023/05/01 06:42:53;;;;;;;6.80;5.67;;;;;;;;;;5040621;28;20188;-75
2023/05/01 06:45:18;;;;;;;6.67;5.97;;;;;;;;;;5044206;28;20175;-75
2023/05/01 06:47:44;;;;;;;6.87;5.90;;;;;;;;;;5038967;28;20178;-75
2023/05/01 06:50:09;;;;;;;6.50;5.93;;;;;;;;;;5044498;28;20185;-76
2023/05/01 06:52:35;;;;;;;6.77;5.80;;;;;;;;;;5044888;28;20214;-75
2023/05/01 06:55:00;;;;;;;6.70;6.10;;;;;;;;;;5049999;28;20187;-76
2023/05/01 06:57:25;;;;;;;8.50;7.40;;;;;;;;;;5042420;28;20210;-76
2023/05/01 06:59:51;;;;;;;7.13;6.43;;;;;;;;;;5048239;28;20250;-76
2023/05/01 07:02:16;;;;;;;7.00;6.30;;;;;;;;;;5042033;28;20205;-76
2023/05/01 07:04:43;;;;;;;6.23;5.57;;;;;;;;;;5046791;28;20180;-75
2023/05/01 07:07:08;;;;;;;6.80;6.17;;;;;;;;;;5049107;28;20185;-76
2023/05/01 07:09:33;;;;;;;7.17;6.47;;;;;;;;;;5042640;28;20188;-75
2023/05/01 07:11:59;;;;;;;6.53;5.70;;;;;;;;;;5050352;28;20292;-76
2023/05/01 07:14:24;;;;;;;6.93;5.53;;;;;;;;;;5045140;28;20180;-75
2023/05/01 07:16:49;;;;;;;6.00;5.50;;;;;;;;;;5046951;28;20185;-76
2023/05/01 07:19:14;;;;;;;11.13;9.80;;;;;;;;;;5049981;28;20183;-75
2023/05/01 07:21:40;;;;;;;6.17;5.67;;;;;;;;;;5050614;28;20174;-75
2023/05/01 07:24:05;;;;;;;5.77;5.17;;;;;;;;;;5048175;28;20193;-76
2023/05/01 07:26:30;;;;;;;6.37;5.77;;;;;;;;;;5050214;28;20179;-76
2023/05/01 07:28:56;;;;;;;5.87;5.37;;;;;;;;;;5043020;28;20237;-76
2023/05/01 07:31:21;;;;;;;7.53;5.40;;;;;;;;;;5051107;28;20209;-76
2023/05/01 07:33:46;;;;;;;5.87;5.37;;;;;;;;;;5050154;28;20282;-76
2023/05/01 07:36:12;;;;;;;5.63;5.13;;;;;;;;;;5048012;28;20183;-76
2023/05/01 07:38:38;;;;;;;6.03;5.53;;;;;;;;;;5047289;28;20178;-76
2023/05/01 07:41:03;;;;;;;7.13;5.30;;;;;;;;;;5049376;28;20189;-76
2023/05/01 07:43:28;;;;;;;6.00;5.20;;;;;;;;;;5039880;28;20176;-75
2023/05/01 07:45:57;;;;;;;5.70;5.20;;;;;;;;;;5037505;28;20268;-76
2023/05/01 07:48:23;;;;;;;7.23;5.33;;;;;;;;;;5040819;28;20177;-76
2023/05/01 07:50:48;;;;;;;7.43;6.67;;;;;;;;;;5043444;28;20192;-76
2023/05/01 07:53:13;;;;;;;5.17;4.70;;;;;;;;;;5046011;28;20230;-76
2023/05/01 07:55:39;;;;;;;5.10;4.60;;;;;;;;;;5044678;28;20181;-76
2023/05/01 07:58:05;;;;;;;5.40;4.90;;;;;;;;;;5044323;28;20279;-76
2023/05/01 08:00:30;;;;;;;6.20;5.67;;;;;;;;;;5047759;28;20177;-76
2023/05/01 08:02:55;;;;;;;7.70;6.67;;;;;;;;;;5048241;28;20288;-75
2023/05/01 08:05:21;;;;;;;5.17;4.77;;;;;;;;;;5048933;28;20264;-76
2023/05/01 08:07:46;;;;;;;5.10;4.57;;;;;;;;;;5043594;28;20182;-76
2023/05/01 08:10:11;;;;;;;6.00;5.43;;;;;;;;;;5044383;28;20178;-76
2023/05/01 08:12:36;;;;;;;5.20;4.70;;;;;;;;;;5050485;28;20296;-76
2023/05/01 08:15:02;;;;;;;4.97;4.57;;;;;;;;;;5042797;28;20174;-76
2023/05/01 08:17:27;;;;;;;5.17;4.53;;;;;;;;;;5046772;28;20185;-76
2023/05/01 08:19:55;;;;;;;4.63;4.27;;;;;;;;;;5045515;28;20175;-76
2023/05/01 08:22:20;;;;;;;4.80;4.40;;;;;;;;;;5043884;28;20181;-76
2023/05/01 08:24:45;;;;;;;5.10;4.63;;;;;;;;;;5042579;28;20200;-76
2023/05/01 08:27:11;;;;;;;4.67;4.27;;;;;;;;;;5043118;28;20175;-76
2023/05/01 08:29:36;;;;;;;5.00;4.50;;;;;;;;;;5047848;28;20234;-76
2023/05/01 08:32:01;;;;;;;4.90;4.40;;;;;;;;;;5045067;28;20217;-76
2023/05/01 08:34:26;;;;;;;4.17;3.70;;;;;;;;;;5044906;28;20179;-76
2023/05/01 08:36:52;;;;;;;4.73;4.20;;;;;;;;;;5049303;28;20178;-76
2023/05/01 08:39:17;;;;;;;4.73;4.23;;;;;;;;;;5048993;28;20185;-76
2023/05/01 08:41:47;;;;;;;4.30;3.87;;;;;;;;;;5040444;28;20164;-76
2023/05/01 08:44:13;;;;;;;5.03;4.63;;;;;;;;;;5048056;28;20250;-76
2023/05/01 08:46:48;;;;;;;5.57;4.73;;;;;;;;;;5046066;28;20182;-76
2023/05/01 08:49:15;;;;;;;4.70;4.30;;;;;;;;;;5049121;28;20208;-76
2023/05/01 08:51:41;;;;;;;4.77;4.23;;;;;;;;;;5041404;28;20186;-76
2023/05/01 08:54:07;;;;;;;4.60;4.20;;;;;;;;;;5043301;28;20194;-76
2023/05/01 08:56:34;;;;;;;5.33;4.87;;;;;;;;;;5046866;28;20204;-77
2023/05/01 08:59:02;;;;;;;5.63;4.30;;;;;;;;;;5042456;28;20207;-76
2023/05/01 09:01:28;;;;;;;4.50;4.10;;;;;;;;;;5037708;28;20229;-76
2023/05/01 09:03:53;;;;;;;4.60;4.20;;;;;;;;;;5043433;28;20212;-76
2023/05/01 09:06:19;;;;;;;4.63;4.17;;;;;;;;;;5037251;28;20176;-78
2023/05/01 09:08:44;;;;;;;4.37;3.97;;;;;;;;;;5040564;28;20184;-78
2023/05/01 09:11:10;;;;;;;4.37;4.07;;;;;;;;;;5043983;28;20187;-80
2023/05/01 09:13:35;;;;;;;5.07;4.20;;;;;;;;;;5049338;28;20409;-79
2023/05/01 09:16:01;;;;;;;4.77;4.37;;;;;;;;;;5041024;28;20176;-80
2023/05/01 09:18:26;;;;;;;5.07;4.27;;;;;;;;;;5048267;28;20202;-80
2023/05/01 09:20:52;;;;;;;4.90;4.37;;;;;;;;;;5047725;28;20184;-79
2023/05/01 09:23:19;;;;;;;7.67;5.63;;;;;;;;;;5048778;28;20211;-79
2023/05/01 09:25:44;;;;;;;4.33;3.93;;;;;;;;;;5048371;28;20177;-79
2023/05/01 09:28:10;;;;;;;5.03;4.13;;;;;;;;;;5049993;28;20309;-79
2023/05/01 09:30:36;;;;;;;4.57;4.10;;;;;;;;;;5051007;28;20242;-80
2023/05/01 09:33:15;;;;;;;4.90;4.30;;;;;;;;;;5050506;28;20201;-79
2023/05/01 09:35:51;;;;;;;4.77;4.37;;;;;;;;;;5066837;28;20215;-79
2023/05/01 09:38:20;;;;;;;4.60;4.10;;;;;;;;;;5048098;28;20218;-79
2023/05/01 09:40:45;;;;;;;4.90;4.47;;;;;;;;;;5045045;28;20232;-80
2023/05/01 09:43:11;;;;;;;5.93;4.20;;;;;;;;;;5054733;28;20367;-79
2023/05/01 09:45:38;;;;;;;4.40;4.07;;;;;;;;;;5046627;28;20225;-79
2023/05/01 09:48:10;;;;;;;4.30;4.00;;;;;;;;;;5047431;28;20189;-80
2023/05/01 09:50:36;;;;;;;4.27;3.97;;;;;;;;;;5047738;28;20234;-79
2023/05/01 09:53:03;;;;;;;4.43;4.03;;;;;;;;;;5047210;28;20208;-79
2023/05/01 09:55:28;;;;;;;4.57;4.27;;;;;;;;;;5045332;28;20190;-79
2023/05/01 09:57:53;;;;;;;4.33;3.97;;;;;;;;;;5047471;28;20188;-79
2023/05/01 10:00:20;;;;;;;3.97;3.67;;;;;;;;;;5045341;28;20174;-79
2023/05/01 10:02:48;;;;;;;4.00;3.70;;;;;;;;;;5050376;28;20204;-79
2023/05/01 10:05:13;;;;;;;4.53;4.13;;;;;;;;;;5054876;28;20181;-80
2023/05/01 10:07:39;;;;;;;4.90;4.00;;;;;;;;;;5043822;28;20300;-80
2023/05/01 10:10:15;;;;;;;4.27;3.97;;;;;;;;;;5046789;28;20178;-80
2023/05/01 10:12:40;;;;;;;4.30;3.90;;;;;;;;;;5043175;28;20282;-78
2023/05/01 10:15:06;;;;;;;4.10;3.80;;;;;;;;;;5049314;28;20179;-79
2023/05/01 10:17:31;;;;;;;4.63;4.23;;;;;;;;;;5042996;28;20261;-80
2023/05/01 10:19:57;;;;;;;4.30;4.00;;;;;;;;;;5048452;28;20199;-79
2023/05/01 10:22:22;;;;;;;4.67;4.27;;;;;;;;;;5044167;28;20175;-80
2023/05/01 10:24:47;;;;;;;4.30;4.00;;;;;;;;;;5049064;28;20178;-80
2023/05/01 10:27:13;;;;;;;4.90;4.40;;;;;;;;;;5048267;28;20175;-79
2023/05/01 10:29:39;;;;;;;4.83;4.30;;;;;;;;;;5049752;28;20225;-80
2023/05/01 10:32:08;;;;;;;4.97;3.83;;;;;;;;;;5052548;28;20192;-79
2023/05/01 10:34:35;;;;;;;3.80;3.50;;;;;;;;;;5053354;28;20201;-80
2023/05/01 10:37:03;;;;;;;6.30;4.13;;;;;;;;;;5044907;28;20205;-80
2023/05/01 10:39:29;;;;;;;5.00;4.50;;;;;;;;;;5050279;28;20180;-80
2023/05/01 10:41:57;;;;;;;4.90;4.30;;;;;;;;;;5059144;28;20179;-79
2023/05/01 10:44:23;;;;;;;4.73;4.23;;;;;;;;;;5056310;28;20177;-80
2023/05/01 10:46:48;;;;;;;5.33;4.93;;;;;;;;;;5049719;28;20270;-80
2023/05/01 10:49:13;;;;;;;4.23;3.87;;;;;;;;;;5047591;28;20189;-80
2023/05/01 10:51:57;;;;;;;4.47;4.07;;;;;;;;;;5052436;28;20194;-79
2023/05/01 10:54:23;;;;;;;5.90;4.17;;;;;;;;;;5064878;28;20190;-80
2023/05/01 10:56:48;;;;;;;4.10;3.80;;;;;;;;;;5048928;28;20180;-79
2023/05/01 10:59:14;;;;;;;6.97;4.83;;;;;;;;;;5050223;28;20186;-80
2023/05/01 11:01:47;;;;;;;4.87;4.47;;;;;;;;;;5047453;28;20204;-80
2023/05/01 11:04:25;;;;;;;4.93;4.43;;;;;;;;;;5048142;28;20186;-80
2023/05/01 11:06:57;;;;;;;5.20;4.80;;;;;;;;;;5056316;28;20180;-80
2023/05/01 11:09:45;;;;;;;5.10;4.70;;;;;;;;;;5050963;28;20220;-80
2023/05/01 11:12:11;;;;;;;5.10;4.60;;;;;;;;;;5065117;28;20202;-80
2023/05/01 11:15:02;;;;;;;6.40;5.20;;;;;;;;;;5043997;28;20184;-80
2023/05/01 11:17:39;;;;;;;5.67;5.20;;;;;;;;;;5042401;28;20222;-79
2023/05/01 11:20:05;;;;;;;5.30;4.80;;;;;;;;;;5050050;28;20230;-80
2023/05/01 11:22:31;;;;;;;5.20;4.80;;;;;;;;;;5051231;28;20258;-80
2023/05/01 11:24:56;;;;;;;5.90;5.30;;;;;;;;;;5043221;28;20244;-80
2023/05/01 11:27:22;;;;;;;5.03;4.53;;;;;;;;;;5050947;28;20181;-80
2023/05/01 11:29:48;;;;;;;5.37;4.77;;;;;;;;;;5047755;28;20230;-80
2023/05/01 11:32:17;;;;;;;5.13;4.63;;;;;;;;;;5039922;28;20198;-80
2023/05/01 11:34:43;;;;;;;5.17;4.67;;;;;;;;;;5048377;28;20175;-80
2023/05/01 11:37:08;;;;;;;5.37;4.87;;;;;;;;;;5051190;28;20190;-80
2023/05/01 11:39:33;;;;;;;5.27;4.80;;;;;;;;;;5051269;28;20173;-79
2023/05/01 11:42:08;;;;;;;5.50;5.00;;;;;;;;;;5048566;28;20190;-79
2023/05/01 11:44:33;;;;;;;5.67;5.07;;;;;;;;;;5048387;28;20195;-79
2023/05/01 11:47:00;;;;;;;6.80;5.43;;;;;;;;;;5062500;28;20175;-79
2023/05/01 11:49:27;;;;;;;6.27;5.70;;;;;;;;;;5048488;28;20176;-79
2023/05/01 11:51:58;;;;;;;5.87;5.07;;;;;;;;;;5066409;28;20210;-79
2023/05/01 11:54:25;;;;;;;5.33;4.43;;;;;;;;;;5046014;28;20186;-79
2023/05/01 11:56:58;;;;;;;4.60;3.90;;;;;;;;;;5046867;28;20179;-79
2023/05/01 11:59:24;;;;;;;6.17;5.60;;;;;;;;;;5048070;28;20176;-79
2023/05/01 12:01:50;;;;;;;5.13;4.73;;;;;;;;;;5049040;28;20185;-79
2023/05/01 12:04:28;;;;;;;5.60;5.10;;;;;;;;;;5049337;28;20183;-78
2023/05/01 12:06:54;;;;;;;7.87;5.90;;;;;;;;;;5050792;28;20261;-79
2023/05/01 12:09:20;;;;;;;6.20;5.60;;;;;;;;;;5052812;28;20217;-79
2023/05/01 12:11:46;;;;;;;6.57;6.07;;;;;;;;;;5045090;28;20205;-78
2023/05/01 12:14:13;;;;;;;6.20;5.70;;;;;;;;;;5043737;28;20172;-79
2023/05/01 12:16:39;;;;;;;6.70;5.50;;;;;;;;;;5047562;28;20170;-79
2023/05/01 12:19:05;;;;;;;6.67;6.07;;;;;;;;;;5036344;28;20185;-79
2023/05/01 12:21:30;;;;;;;5.90;5.40;;;;;;;;;;5046328;28;20218;-79
2023/05/01 12:23:58;;;;;;;5.87;5.37;;;;;;;;;;5050513;28;20190;-79
2023/05/01 12:26:24;;;;;;;6.13;5.53;;;;;;;;;;5050413;28;20167;-79
2023/05/01 12:28:56;;;;;;;5.30;4.80;;;;;;;;;;5049573;28;20234;-79
2023/05/01 12:31:22;;;;;;;5.73;5.23;;;;;;;;;;5050203;28;20163;-79
2023/05/01 12:33:57;;;;;;;5.60;5.10;;;;;;;;;;5051229;28;20199;-80
2023/05/01 12:36:24;;;;;;;5.53;5.03;;;;;;;;;;5049725;28;20211;-79
2023/05/01 12:38:57;;;;;;;7.97;6.23;;;;;;;;;;5041873;28;20185;-79
2023/05/01 12:41:42;;;;;;;5.30;4.77;;;;;;;;;;5048860;28;20205;-79
2023/05/01 12:44:17;;;;;;;5.00;4.60;;;;;;;;;;5050163;28;20205;-79
2023/05/01 12:46:43;;;;;;;5.07;4.67;;;;;;;;;;5054352;28;20201;-79
2023/05/01 12:49:08;;;;;;;5.50;5.00;;;;;;;;;;5046788;28;20176;-80
2023/05/01 12:51:33;;;;;;;5.30;4.87;;;;;;;;;;5051099;28;20198;-79
2023/05/01 12:53:59;;;;;;;5.20;4.80;;;;;;;;;;5049147;28;20187;-79
2023/05/01 12:56:24;;;;;;;5.77;5.17;;;;;;;;;;5045152;28;20260;-79
2023/05/01 12:58:52;;;;;;;5.53;5.03;;;;;;;;;;5043075;28;20204;-78
2023/05/01 13:01:27;;;;;;;5.10;4.70;;;;;;;;;;5048475;28;20204;-79
2023/05/01 13:03:53;;;;;;;4.80;4.40;;;;;;;;;;5046918;28;20196;-79
2023/05/01 13:06:18;;;;;;;5.03;4.60;;;;;;;;;;5050996;28;20190;-79
2023/05/01 13:08:44;;;;;;;4.77;4.37;;;;;;;;;;5050322;28;20176;-79
2023/05/01 13:11:13;;;;;;;4.80;4.40;;;;;;;;;;5046979;28;20185;-80
2023/05/01 13:13:38;;;;;;;5.20;4.70;;;;;;;;;;5049774;28;20217;-79
2023/05/01 13:16:09;;;;;;;5.07;4.67;;;;;;;;;;5048933;28;20176;-79
2023/05/01 13:18:41;;;;;;;4.30;4.00;;;;;;;;;;5049812;28;20180;-79
2023/05/01 13:21:08;;;;;;;4.90;4.50;;;;;;;;;;5046709;28;20176;-79
2023/05/01 13:23:33;;;;;;;4.57;4.17;;;;;;;;;;5044022;28;20181;-79
2023/05/01 13:25:58;;;;;;;4.80;4.40;;;;;;;;;;5047050;28;20189;-79
2023/05/01 13:28:24;;;;;;;5.53;4.17;;;;;;;;;;5048964;28;20231;-80
2023/05/01 13:30:49;;;;;;;4.50;4.20;;;;;;;;;;5044088;28;20179;-80
2023/05/01 13:33:14;;;;;;;4.63;3.90;;;;;;;;;;5043607;28;20211;-80
2023/05/01 13:35:44;;;;;;;4.00;3.70;;;;;;;;;;5027593;28;20251;-80
2023/05/01 13:38:11;;;;;;;4.23;3.83;;;;;;;;;;5046222;28;20174;-80
2023/05/01 13:40:37;;;;;;;5.17;4.77;;;;;;;;;;5048796;28;20182;-80
2023/05/01 13:43:02;;;;;;;5.27;4.77;;;;;;;;;;5043997;28;20273;-80
2023/05/01 13:45:28;;;;;;;5.50;5.10;;;;;;;;;;5050474;28;20276;-81
2023/05/01 13:47:54;;;;;;;5.60;5.10;;;;;;;;;;5050891;28;20189;-80
2023/05/01 13:50:19;;;;;;;5.70;5.20;;;;;;;;;;5049946;28;20180;-80
2023/05/01 13:52:44;;;;;;;6.73;5.53;;;;;;;;;;5046834;28;20208;-80
2023/05/01 13:55:10;;;;;;;6.47;5.83;;;;;;;;;;5047228;28;20179;-79
2023/05/01 13:57:37;;;;;;;6.10;5.60;;;;;;;;;;5043497;28;20235;-80
2023/05/01 14:00:03;;;;;;;6.67;5.87;;;;;;;;;;5041292;28;20201;-80
2023/05/01 14:02:29;;;;;;;5.10;4.70;;;;;;;;;;5043039;28;20210;-80
2023/05/01 14:04:54;;;;;;;6.00;5.43;;;;;;;;;;5047554;28;20195;-80
2023/05/01 14:07:23;;;;;;;8.20;6.07;;;;;;;;;;5049276;28;20197;-79
2023/05/01 14:09:52;;;;;;;6.00;5.50;;;;;;;;;;5048677;28;20284;-79
2023/05/01 14:12:17;;;;;;;7.43;6.77;;;;;;;;;;5047950;28;20201;-78
2023/05/01 14:14:46;;;;;;;8.07;7.37;;;;;;;;;;5038124;28;20189;-79
2023/05/01 14:17:12;;;;;;;9.30;6.83;;;;;;;;;;5042344;28;20200;-79
2023/05/01 14:19:38;;;;;;;8.43;7.60;;;;;;;;;;5042538;28;20185;-78
2023/05/01 14:22:06;;;;;;;7.67;6.97;;;;;;;;;;5042521;28;20185;-79
2023/05/01 14:24:34;;;;;;;7.43;6.83;;;;;;;;;;5048748;28;20218;-78
2023/05/01 14:27:00;;;;;;;7.43;6.83;;;;;;;;;;5045209;28;20191;-79
2023/05/01 14:29:26;;;;;;;9.33;7.53;;;;;;;;;;5042166;28;20278;-79
2023/05/01 14:31:53;;;;;;;8.07;7.27;;;;;;;;;;5046972;28;20211;-78
2023/05/01 14:34:19;;;;;;;8.20;7.40;;;;;;;;;;5045081;28;20179;-78
2023/05/01 14:36:44;;;;;;;15.40;9.03;;;;;;;;;;5040256;28;20173;-78
2023/05/01 14:39:09;;;;;;;8.57;7.77;;;;;;;;;;5050634;28;20176;-78
2023/05/01 14:41:37;;;;;;;8.13;7.33;;;;;;;;;;5047557;28;20215;-78